sensor_id;sensor_type;location;lat;lon;timestamp;P1;durP1;ratioP1;P2;durP2;ratioP2
62256;SDS011;48240;52.962;5.790;2023-05-10T03:53:50;0.37;;;0.33;;
62256;SDS011;48240;52.962;5.790;2023-05-10T03:56:16;1.00;;;0.50;;
62256;SDS011;48240;52.962;5.790;2023-05-10T03:58:42;0.52;;;0.50;;
62256;SDS011;48240;52.962;5.790;2023-05-10T04:01:08;1.20;;;0.47;;
62256;SDS011;48240;52.962;5.790;2023-05-10T04:03:34;0.75;;;0.40;;
62256;SDS011;48240;52.962;5.790;2023-05-10T04:06:01;0.40;;;0.40;;
62256;SDS011;48240;52.962;5.790;2023-05-10T04:08:28;1.58;;;0.60;;
62256;SDS011;48240;52.962;5.790;2023-05-10T04:10:54;0.98;;;0.40;;
62256;SDS011;48240;52.962;5.790;2023-05-10T04:13:20;1.35;;;0.40;;
62256;SDS011;48240;52.962;5.790;2023-05-10T04:15:46;0.40;;;0.40;;
62256;SDS011;48240;52.962;5.790;2023-05-10T04:18:12;1.08;;;0.30;;
62256;SDS011;48240;52.962;5.790;2023-05-10T04:20:38;0.50;;;0.50;;
62256;SDS011;48240;52.962;5.790;2023-05-10T04:23:04;0.50;;;0.50;;
62256;SDS011;48240;52.962;5.790;2023-05-10T04:25:33;0.77;;;0.50;;
62256;SDS011;48240;52.962;5.790;2023-05-10T04:28:00;0.95;;;0.40;;
62256;SDS011;48240;52.962;5.790;2023-05-10T04:30:26;0.70;;;0.40;;
62256;SDS011;48240;52.962;5.790;2023-05-10T04:32:54;1.02;;;0.60;;
62256;SDS011;48240;52.962;5.790;2023-05-10T04:35:20;0.30;;;0.30;;
62256;SDS011;48240;52.962;5.790;2023-05-10T04:37:46;0.28;;;0.28;;
62256;SDS011;48240;52.962;5.790;2023-05-10T04:40:12;0.47;;;0.30;;
62256;SDS011;48240;52.962;5.790;2023-05-10T04:42:39;0.57;;;0.30;;
62256;SDS011;48240;52.962;5.790;2023-05-10T04:45:09;0.30;;;0.30;;
62256;SDS011;48240;52.962;5.790;2023-05-10T04:47:35;1.38;;;0.30;;
62256;SDS011;48240;52.962;5.790;2023-05-10T04:50:02;0.40;;;0.38;;
62256;SDS011;48240;52.962;5.790;2023-05-10T04:52:28;0.30;;;0.30;;
62256;SDS011;48240;52.962;5.790;2023-05-10T04:54:54;0.20;;;0.20;;
62256;SDS011;48240;52.962;5.790;2023-05-10T04:57:20;0.30;;;0.30;;
62256;SDS011;48240;52.962;5.790;2023-05-10T04:59:47;0.85;;;0.40;;
62256;SDS011;48240;52.962;5.790;2023-05-10T05:02:13;0.60;;;0.40;;
62256;SDS011;48240;52.962;5.790;2023-05-10T05:04:39;0.30;;;0.30;;
62256;SDS011;48240;52.962;5.790;2023-05-10T05:07:05;0.75;;;0.40;;
62256;SDS011;48240;52.962;5.790;2023-05-10T05:09:31;0.95;;;0.40;;
62256;SDS011;48240;52.962;5.790;2023-05-10T05:11:57;0.30;;;0.30;;
62256;SDS011;48240;52.962;5.790;2023-05-10T05:14:23;0.30;;;0.30;;
62256;SDS011;48240;52.962;5.790;2023-05-10T05:16:53;0.50;;;0.50;;
62256;SDS011;48240;52.962;5.790;2023-05-10T05:19:19;1.10;;;0.60;;
62256;SDS011;48240;52.962;5.790;2023-05-10T05:21:45;0.82;;;0.50;;
62256;SDS011;48240;52.962;5.790;2023-05-10T05:24:11;1.00;;;0.50;;
62256;SDS011;48240;52.962;5.790;2023-05-10T05:26:37;0.43;;;0.43;;
62256;SDS011;48240;52.962;5.790;2023-05-10T05:29:04;1.17;;;0.40;;
62256;SDS011;48240;52.962;5.790;2023-05-10T05:31:30;0.60;;;0.60;;
62256;SDS011;48240;52.962;5.790;2023-05-10T05:33:56;0.80;;;0.50;;
62256;SDS011;48240;52.962;5.790;2023-05-10T05:36:22;0.93;;;0.63;;
62256;SDS011;48240;52.962;5.790;2023-05-10T05:38:48;1.95;;;0.65;;
62256;SDS011;48240;52.962;5.790;2023-05-10T05:41:14;0.70;;;0.70;;
62256;SDS011;48240;52.962;5.790;2023-05-10T05:43:40;0.40;;;0.40;;
62256;SDS011;48240;52.962;5.790;2023-05-10T05:46:06;0.57;;;0.32;;
62256;SDS011;48240;52.962;5.790;2023-05-10T05:48:32;0.47;;;0.40;;
62256;SDS011;48240;52.962;5.790;2023-05-10T05:50:59;0.40;;;0.40;;
62256;SDS011;48240;52.962;5.790;2023-05-10T05:53:25;1.35;;;0.50;;
62256;SDS011;48240;52.962;5.790;2023-05-10T05:55:54;0.73;;;0.43;;
62256;SDS011;48240;52.962;5.790;2023-05-10T05:58:21;0.32;;;0.30;;
62256;SDS011;48240;52.962;5.790;2023-05-10T06:00:47;2.95;;;0.50;;
62256;SDS011;48240;52.962;5.790;2023-05-10T06:03:14;2.35;;;1.58;;
62256;SDS011;48240;52.962;5.790;2023-05-10T06:05:40;3.55;;;2.25;;
62256;SDS011;48240;52.962;5.790;2023-05-10T06:08:06;2.10;;;1.85;;
62256;SDS011;48240;52.962;5.790;2023-05-10T06:10:32;2.90;;;2.20;;
62256;SDS011;48240;52.962;5.790;2023-05-10T06:12:58;2.10;;;1.80;;
62256;SDS011;48240;52.962;5.790;2023-05-10T06:15:25;4.05;;;1.88;;
62256;SDS011;48240;52.962;5.790;2023-05-10T06:17:51;2.97;;;1.70;;
62256;SDS011;48240;52.962;5.790;2023-05-10T06:20:17;2.00;;;1.80;;
62256;SDS011;48240;52.962;5.790;2023-05-10T06:22:43;2.13;;;1.60;;
62256;SDS011;48240;52.962;5.790;2023-05-10T06:25:09;1.83;;;1.50;;
62256;SDS011;48240;52.962;5.790;2023-05-10T06:27:36;2.78;;;2.00;;
62256;SDS011;48240;52.962;5.790;2023-05-10T06:30:02;11.40;;;1.80;;
62256;SDS011;48240;52.962;5.790;2023-05-10T06:32:30;1.55;;;1.27;;
62256;SDS011;48240;52.962;5.790;2023-05-10T06:34:56;2.92;;;1.00;;
62256;SDS011;48240;52.962;5.790;2023-05-10T06:37:22;0.82;;;0.80;;
62256;SDS011;48240;52.962;5.790;2023-05-10T06:39:48;1.58;;;0.90;;
62256;SDS011;48240;52.962;5.790;2023-05-10T06:42:14;0.80;;;0.80;;
62256;SDS011;48240;52.962;5.790;2023-05-10T06:44:40;1.30;;;0.93;;
62256;SDS011;48240;52.962;5.790;2023-05-10T06:47:06;2.63;;;0.77;;
62256;SDS011;48240;52.962;5.790;2023-05-10T06:49:32;1.30;;;1.00;;
62256;SDS011;48240;52.962;5.790;2023-05-10T06:51:58;1.05;;;0.85;;
62256;SDS011;48240;52.962;5.790;2023-05-10T06:54:25;1.02;;;0.60;;
62256;SDS011;48240;52.962;5.790;2023-05-10T06:56:51;1.17;;;0.80;;
62256;SDS011;48240;52.962;5.790;2023-05-10T06:59:17;3.75;;;0.60;;
62256;SDS011;48240;52.962;5.790;2023-05-10T07:01:44;2.65;;;0.60;;
62256;SDS011;48240;52.962;5.790;2023-05-10T07:04:10;0.65;;;0.50;;
62256;SDS011;48240;52.962;5.790;2023-05-10T07:06:36;0.77;;;0.40;;
62256;SDS011;48240;52.962;5.790;2023-05-10T07:09:02;0.80;;;0.50;;
62256;SDS011;48240;52.962;5.790;2023-05-10T07:11:29;1.15;;;0.68;;
62256;SDS011;48240;52.962;5.790;2023-05-10T07:13:55;0.40;;;0.40;;
62256;SDS011;48240;52.962;5.790;2023-05-10T07:16:21;0.60;;;0.40;;
62256;SDS011;48240;52.962;5.790;2023-05-10T07:18:47;0.65;;;0.60;;
62256;SDS011;48240;52.962;5.790;2023-05-10T07:21:13;0.43;;;0.38;;
62256;SDS011;48240;52.962;5.790;2023-05-10T07:23:39;1.15;;;0.70;;
62256;SDS011;48240;52.962;5.790;2023-05-10T07:26:05;0.57;;;0.55;;
62256;SDS011;48240;52.962;5.790;2023-05-10T07:28:32;2.63;;;0.70;;
62256;SDS011;48240;52.962;5.790;2023-05-10T07:30:58;1.17;;;0.52;;
62256;SDS011;48240;52.962;5.790;2023-05-10T07:33:24;0.60;;;0.50;;
62256;SDS011;48240;52.962;5.790;2023-05-10T07:35:50;1.25;;;0.60;;
62256;SDS011;48240;52.962;5.790;2023-05-10T07:38:16;0.95;;;0.52;;
62256;SDS011;48240;52.962;5.790;2023-05-10T07:40:42;0.68;;;0.50;;
62256;SDS011;48240;52.962;5.790;2023-05-10T07:43:08;0.98;;;0.60;;
62256;SDS011;48240;52.962;5.790;2023-05-10T07:45:34;0.95;;;0.63;;
62256;SDS011;48240;52.962;5.790;2023-05-10T07:48:01;1.67;;;0.60;;
62256;SDS011;48240;52.962;5.790;2023-05-10T07:50:27;1.70;;;0.50;;
62256;SDS011;48240;52.962;5.790;2023-05-10T07:52:53;0.50;;;0.50;;
62256;SDS011;48240;52.962;5.790;2023-05-10T07:55:19;1.35;;;0.68;;
62256;SDS011;48240;52.962;5.790;2023-05-10T07:57:46;0.60;;;0.50;;
62256;SDS011;48240;52.962;5.790;2023-05-10T08:00:12;0.70;;;0.60;;
62256;SDS011;48240;52.962;5.790;2023-05-10T08:02:39;1.40;;;0.73;;
62256;SDS011;48240;52.962;5.790;2023-05-10T08:05:05;1.52;;;0.60;;
62256;SDS011;48240;52.962;5.790;2023-05-10T08:07:31;0.70;;;0.63;;
62256;SDS011;48240;52.962;5.790;2023-05-10T08:09:58;0.77;;;0.60;;
62256;SDS011;48240;52.962;5.790;2023-05-10T08:12:24;0.60;;;0.60;;
62256;SDS011;48240;52.962;5.790;2023-05-10T08:14:50;1.13;;;0.60;;
62256;SDS011;48240;52.962;5.790;2023-05-10T08:17:17;2.42;;;0.88;;
62256;SDS011;48240;52.962;5.790;2023-05-10T08:19:43;0.60;;;0.55;;
62256;SDS011;48240;52.962;5.790;2023-05-10T08:22:09;1.48;;;0.68;;
62256;SDS011;48240;52.962;5.790;2023-05-10T08:24:35;0.93;;;0.50;;
62256;SDS011;48240;52.962;5.790;2023-05-10T08:27:06;0.70;;;0.50;;
62256;SDS011;48240;52.962;5.790;2023-05-10T08:29:32;0.82;;;0.52;;
62256;SDS011;48240;52.962;5.790;2023-05-10T08:31:58;0.55;;;0.43;;
62256;SDS011;48240;52.962;5.790;2023-05-10T08:34:26;0.93;;;0.77;;
62256;SDS011;48240;52.962;5.790;2023-05-10T08:36:52;0.90;;;0.60;;
62256;SDS011;48240;52.962;5.790;2023-05-10T08:39:18;1.75;;;0.68;;
62256;SDS011;48240;52.962;5.790;2023-05-10T08:41:44;1.30;;;0.45;;
62256;SDS011;48240;52.962;5.790;2023-05-10T08:44:12;0.73;;;0.60;;
62256;SDS011;48240;52.962;5.790;2023-05-10T08:46:38;0.57;;;0.50;;
62256;SDS011;48240;52.962;5.790;2023-05-10T08:49:09;1.50;;;0.70;;
62256;SDS011;48240;52.962;5.790;2023-05-10T08:51:36;1.55;;;0.70;;
62256;SDS011;48240;52.962;5.790;2023-05-10T08:54:05;0.82;;;0.70;;
62256;SDS011;48240;52.962;5.790;2023-05-10T08:56:31;2.67;;;0.60;;
62256;SDS011;48240;52.962;5.790;2023-05-10T08:58:57;0.80;;;0.60;;
62256;SDS011;48240;52.962;5.790;2023-05-10T09:01:23;0.57;;;0.50;;
62256;SDS011;48240;52.962;5.790;2023-05-10T09:03:50;0.75;;;0.50;;
62256;SDS011;48240;52.962;5.790;2023-05-10T09:06:16;0.68;;;0.60;;
62256;SDS011;48240;52.962;5.790;2023-05-10T09:08:42;1.02;;;0.70;;
62256;SDS011;48240;52.962;5.790;2023-05-10T09:11:09;0.40;;;0.40;;
62256;SDS011;48240;52.962;5.790;2023-05-10T09:13:36;2.63;;;0.60;;
62256;SDS011;48240;52.962;5.790;2023-05-10T09:16:02;1.30;;;0.63;;
62256;SDS011;48240;52.962;5.790;2023-05-10T09:18:29;0.95;;;0.65;;
62256;SDS011;48240;52.962;5.790;2023-05-10T09:20:55;1.33;;;0.70;;
62256;SDS011;48240;52.962;5.790;2023-05-10T09:23:22;1.33;;;0.70;;
62256;SDS011;48240;52.962;5.790;2023-05-10T09:26:01;1.25;;;0.50;;
62256;SDS011;48240;52.962;5.790;2023-05-10T09:28:31;0.70;;;0.60;;
62256;SDS011;48240;52.962;5.790;2023-05-10T09:30:57;1.60;;;0.82;;
62256;SDS011;48240;52.962;5.790;2023-05-10T09:33:23;1.70;;;0.57;;
62256;SDS011;48240;52.962;5.790;2023-05-10T09:35:49;0.80;;;0.50;;
62256;SDS011;48240;52.962;5.790;2023-05-10T09:38:17;0.73;;;0.40;;
62256;SDS011;48240;52.962;5.790;2023-05-10T09:40:50;0.63;;;0.55;;
62256;SDS011;48240;52.962;5.790;2023-05-10T09:43:19;0.45;;;0.45;;
62256;SDS011;48240;52.962;5.790;2023-05-10T09:45:46;0.77;;;0.57;;
62256;SDS011;48240;52.962;5.790;2023-05-10T09:48:14;2.15;;;0.73;;
62256;SDS011;48240;52.962;5.790;2023-05-10T09:50:40;1.13;;;0.60;;
62256;SDS011;48240;52.962;5.790;2023-05-10T09:53:07;0.88;;;0.60;;
62256;SDS011;48240;52.962;5.790;2023-05-10T09:55:40;1.20;;;0.80;;
62256;SDS011;48240;52.962;5.790;2023-05-10T09:58:07;1.55;;;0.80;;
62256;SDS011;48240;52.962;5.790;2023-05-10T10:00:39;2.45;;;0.98;;
62256;SDS011;48240;52.962;5.790;2023-05-10T10:03:06;0.73;;;0.70;;
62256;SDS011;48240;52.962;5.790;2023-05-10T10:05:33;1.25;;;0.82;;
62256;SDS011;48240;52.962;5.790;2023-05-10T10:07:59;2.40;;;0.73;;
62256;SDS011;48240;52.962;5.790;2023-05-10T10:10:26;1.25;;;0.95;;
62256;SDS011;48240;52.962;5.790;2023-05-10T10:12:53;1.83;;;1.42;;
62256;SDS011;48240;52.962;5.790;2023-05-10T10:15:23;1.65;;;1.00;;
62256;SDS011;48240;52.962;5.790;2023-05-10T10:17:50;1.77;;;1.47;;
62256;SDS011;48240;52.962;5.790;2023-05-10T10:20:17;0.98;;;0.88;;
62256;SDS011;48240;52.962;5.790;2023-05-10T10:22:43;2.40;;;1.00;;
62256;SDS011;48240;52.962;5.790;2023-05-10T10:25:13;5.38;;;1.20;;
62256;SDS011;48240;52.962;5.790;2023-05-10T10:35:04;4.18;;;1.73;;
62256;SDS011;48240;52.962;5.790;2023-05-10T10:37:43;2.67;;;1.90;;
62256;SDS011;48240;52.962;5.790;2023-05-10T10:42:54;2.65;;;1.45;;
62256;SDS011;48240;52.962;5.790;2023-05-10T10:45:20;2.20;;;1.35;;
62256;SDS011;48240;52.962;5.790;2023-05-10T10:47:47;4.07;;;1.70;;
62256;SDS011;48240;52.962;5.790;2023-05-10T10:50:13;2.95;;;1.77;;
62256;SDS011;48240;52.962;5.790;2023-05-10T10:52:41;3.28;;;1.95;;
62256;SDS011;48240;52.962;5.790;2023-05-10T11:00:25;3.30;;;2.10;;
62256;SDS011;48240;52.962;5.790;2023-05-10T11:02:53;3.95;;;1.80;;
62256;SDS011;48240;52.962;5.790;2023-05-10T11:05:33;3.30;;;1.70;;
62256;SDS011;48240;52.962;5.790;2023-05-10T11:10:34;2.92;;;1.95;;
62256;SDS011;48240;52.962;5.790;2023-05-10T11:13:08;2.33;;;1.92;;
62256;SDS011;48240;52.962;5.790;2023-05-10T11:15:38;2.88;;;1.83;;
62256;SDS011;48240;52.962;5.790;2023-05-10T11:18:23;2.40;;;1.90;;
62256;SDS011;48240;52.962;5.790;2023-05-10T11:20:50;3.92;;;2.00;;
62256;SDS011;48240;52.962;5.790;2023-05-10T11:23:16;2.08;;;1.70;;
62256;SDS011;48240;52.962;5.790;2023-05-10T11:25:43;3.35;;;2.35;;
62256;SDS011;48240;52.962;5.790;2023-05-10T11:28:10;2.60;;;2.00;;
62256;SDS011;48240;52.962;5.790;2023-05-10T11:30:37;2.67;;;2.00;;
62256;SDS011;48240;52.962;5.790;2023-05-10T11:33:04;3.22;;;2.10;;
62256;SDS011;48240;52.962;5.790;2023-05-10T11:35:30;2.92;;;2.00;;
62256;SDS011;48240;52.962;5.790;2023-05-10T11:37:56;2.63;;;1.95;;
62256;SDS011;48240;52.962;5.790;2023-05-10T11:40:22;4.68;;;2.10;;
62256;SDS011;48240;52.962;5.790;2023-05-10T11:42:50;5.45;;;2.00;;
62256;SDS011;48240;52.962;5.790;2023-05-10T11:45:16;3.65;;;1.95;;
62256;SDS011;48240;52.962;5.790;2023-05-10T11:47:42;4.47;;;2.08;;
62256;SDS011;48240;52.962;5.790;2023-05-10T11:50:09;3.20;;;2.20;;
62256;SDS011;48240;52.962;5.790;2023-05-10T11:52:35;5.20;;;2.63;;
62256;SDS011;48240;52.962;5.790;2023-05-10T11:55:05;3.38;;;2.28;;
62256;SDS011;48240;52.962;5.790;2023-05-10T11:57:31;4.28;;;2.20;;
62256;SDS011;48240;52.962;5.790;2023-05-10T11:59:57;3.20;;;2.55;;
62256;SDS011;48240;52.962;5.790;2023-05-10T12:02:23;3.05;;;2.40;;
62256;SDS011;48240;52.962;5.790;2023-05-10T12:04:50;3.80;;;2.72;;
62256;SDS011;48240;52.962;5.790;2023-05-10T12:07:16;3.00;;;1.85;;
62256;SDS011;48240;52.962;5.790;2023-05-10T12:09:43;3.25;;;2.00;;
62256;SDS011;48240;52.962;5.790;2023-05-10T12:12:10;4.38;;;2.20;;
62256;SDS011;48240;52.962;5.790;2023-05-10T12:14:36;2.72;;;2.20;;
62256;SDS011;48240;52.962;5.790;2023-05-10T12:17:02;3.15;;;2.40;;
62256;SDS011;48240;52.962;5.790;2023-05-10T12:19:29;3.50;;;2.00;;
62256;SDS011;48240;52.962;5.790;2023-05-10T12:22:04;3.78;;;2.50;;
62256;SDS011;48240;52.962;5.790;2023-05-10T12:24:30;4.70;;;2.80;;
62256;SDS011;48240;52.962;5.790;2023-05-10T12:26:56;2.42;;;1.90;;
62256;SDS011;48240;52.962;5.790;2023-05-10T12:29:22;2.40;;;1.88;;
62256;SDS011;48240;52.962;5.790;2023-05-10T12:31:52;3.63;;;2.10;;
62256;SDS011;48240;52.962;5.790;2023-05-10T12:34:22;3.95;;;2.20;;
62256;SDS011;48240;52.962;5.790;2023-05-10T12:36:52;4.55;;;2.10;;
62256;SDS011;48240;52.962;5.790;2023-05-10T12:39:18;2.70;;;1.90;;
62256;SDS011;48240;52.962;5.790;2023-05-10T12:41:44;2.83;;;1.88;;
62256;SDS011;48240;52.962;5.790;2023-05-10T12:44:10;3.13;;;1.80;;
62256;SDS011;48240;52.962;5.790;2023-05-10T12:46:36;3.00;;;1.92;;
62256;SDS011;48240;52.962;5.790;2023-05-10T12:49:03;2.15;;;1.60;;
62256;SDS011;48240;52.962;5.790;2023-05-10T12:51:30;1.80;;;1.60;;
62256;SDS011;48240;52.962;5.790;2023-05-10T12:53:56;3.53;;;1.85;;
62256;SDS011;48240;52.962;5.790;2023-05-10T12:56:22;4.03;;;1.90;;
62256;SDS011;48240;52.962;5.790;2023-05-10T12:58:48;2.42;;;1.70;;
62256;SDS011;48240;52.962;5.790;2023-05-10T13:01:14;2.05;;;1.60;;
62256;SDS011;48240;52.962;5.790;2023-05-10T13:03:41;1.92;;;1.63;;
62256;SDS011;48240;52.962;5.790;2023-05-10T13:06:08;2.75;;;1.60;;
62256;SDS011;48240;52.962;5.790;2023-05-10T13:08:34;2.50;;;1.75;;
62256;SDS011;48240;52.962;5.790;2023-05-10T13:11:01;1.98;;;1.80;;
62256;SDS011;48240;52.962;5.790;2023-05-10T13:13:27;2.65;;;1.60;;
62256;SDS011;48240;52.962;5.790;2023-05-10T13:15:53;2.05;;;1.70;;
62256;SDS011;48240;52.962;5.790;2023-05-10T13:18:19;2.00;;;1.80;;
62256;SDS011;48240;52.962;5.790;2023-05-10T13:20:46;1.85;;;1.70;;
62256;SDS011;48240;52.962;5.790;2023-05-10T13:23:12;2.38;;;1.55;;
62256;SDS011;48240;52.962;5.790;2023-05-10T13:25:38;4.40;;;1.70;;
62256;SDS011;48240;52.962;5.790;2023-05-10T13:28:04;2.47;;;1.55;;
62256;SDS011;48240;52.962;5.790;2023-05-10T13:30:30;1.80;;;1.70;;
62256;SDS011;48240;52.962;5.790;2023-05-10T13:32:56;3.08;;;1.88;;
62256;SDS011;48240;52.962;5.790;2023-05-10T13:35:22;3.67;;;1.80;;
62256;SDS011;48240;52.962;5.790;2023-05-10T13:37:48;2.78;;;1.70;;
62256;SDS011;48240;52.962;5.790;2023-05-10T13:40:14;3.35;;;1.70;;
62256;SDS011;48240;52.962;5.790;2023-05-10T13:42:42;2.15;;;1.50;;
62256;SDS011;48240;52.962;5.790;2023-05-10T13:45:08;2.28;;;1.95;;
62256;SDS011;48240;52.962;5.790;2023-05-10T13:47:36;2.53;;;1.65;;
62256;SDS011;48240;52.962;5.790;2023-05-10T13:50:03;2.97;;;1.70;;
62256;SDS011;48240;52.962;5.790;2023-05-10T13:52:29;2.47;;;1.83;;
62256;SDS011;48240;52.962;5.790;2023-05-10T13:54:55;3.00;;;1.90;;
62256;SDS011;48240;52.962;5.790;2023-05-10T13:57:22;3.58;;;2.13;;
62256;SDS011;48240;52.962;5.790;2023-05-10T13:59:49;2.75;;;2.10;;
62256;SDS011;48240;52.962;5.790;2023-05-10T14:02:15;4.55;;;1.90;;
62256;SDS011;48240;52.962;5.790;2023-05-10T14:04:41;3.22;;;1.90;;
62256;SDS011;48240;52.962;5.790;2023-05-10T14:07:07;1.95;;;1.67;;
62256;SDS011;48240;52.962;5.790;2023-05-10T14:09:33;2.85;;;1.75;;
62256;SDS011;48240;52.962;5.790;2023-05-10T14:12:00;2.05;;;1.80;;
62256;SDS011;48240;52.962;5.790;2023-05-10T14:14:26;2.60;;;1.90;;
62256;SDS011;48240;52.962;5.790;2023-05-10T14:16:54;2.10;;;1.60;;
62256;SDS011;48240;52.962;5.790;2023-05-10T14:19:20;2.30;;;2.00;;
62256;SDS011;48240;52.962;5.790;2023-05-10T14:21:46;2.28;;;2.00;;
62256;SDS011;48240;52.962;5.790;2023-05-10T14:24:12;2.15;;;1.73;;
62256;SDS011;48240;52.962;5.790;2023-05-10T14:26:38;3.17;;;2.30;;
62256;SDS011;48240;52.962;5.790;2023-05-10T14:29:04;2.17;;;1.95;;
62256;SDS011;48240;52.962;5.790;2023-05-10T14:31:30;3.05;;;2.30;;
62256;SDS011;48240;52.962;5.790;2023-05-10T14:33:56;3.03;;;1.85;;
62256;SDS011;48240;52.962;5.790;2023-05-10T14:36:22;2.92;;;2.00;;
62256;SDS011;48240;52.962;5.790;2023-05-10T14:38:49;4.05;;;2.00;;
62256;SDS011;48240;52.962;5.790;2023-05-10T14:41:15;2.78;;;2.08;;
62256;SDS011;48240;52.962;5.790;2023-05-10T14:43:42;4.22;;;2.25;;
62256;SDS011;48240;52.962;5.790;2023-05-10T14:46:08;2.70;;;2.00;;
62256;SDS011;48240;52.962;5.790;2023-05-10T14:48:35;2.70;;;1.92;;
62256;SDS011;48240;52.962;5.790;2023-05-10T14:51:01;3.38;;;2.22;;
62256;SDS011;48240;52.962;5.790;2023-05-10T14:53:28;3.47;;;2.08;;
62256;SDS011;48240;52.962;5.790;2023-05-10T14:55:54;2.33;;;1.95;;
62256;SDS011;48240;52.962;5.790;2023-05-10T14:58:20;3.80;;;2.00;;
62256;SDS011;48240;52.962;5.790;2023-05-10T15:00:46;2.45;;;1.90;;
62256;SDS011;48240;52.962;5.790;2023-05-10T15:03:13;3.92;;;2.38;;
62256;SDS011;48240;52.962;5.790;2023-05-10T15:05:39;2.92;;;2.40;;
62256;SDS011;48240;52.962;5.790;2023-05-10T15:08:05;3.00;;;2.13;;
62256;SDS011;48240;52.962;5.790;2023-05-10T15:10:31;3.97;;;2.40;;
62256;SDS011;48240;52.962;5.790;2023-05-10T15:12:58;2.90;;;2.05;;
62256;SDS011;48240;52.962;5.790;2023-05-10T15:15:24;3.13;;;2.53;;
62256;SDS011;48240;52.962;5.790;2023-05-10T15:17:51;2.75;;;2.13;;
62256;SDS011;48240;52.962;5.790;2023-05-10T15:20:17;2.67;;;2.22;;
62256;SDS011;48240;52.962;5.790;2023-05-10T15:22:43;3.08;;;2.10;;
62256;SDS011;48240;52.962;5.790;2023-05-10T15:25:09;4.70;;;2.30;;
62256;SDS011;48240;52.962;5.790;2023-05-10T15:27:35;3.70;;;2.30;;
62256;SDS011;48240;52.962;5.790;2023-05-10T15:30:01;3.22;;;2.17;;
62256;SDS011;48240;52.962;5.790;2023-05-10T15:32:27;3.05;;;2.50;;
62256;SDS011;48240;52.962;5.790;2023-05-10T15:34:56;2.22;;;2.00;;
62256;SDS011;48240;52.962;5.790;2023-05-10T15:37:23;3.60;;;2.42;;
62256;SDS011;48240;52.962;5.790;2023-05-10T15:39:49;3.13;;;2.30;;
62256;SDS011;48240;52.962;5.790;2023-05-10T15:42:15;2.45;;;2.15;;
62256;SDS011;48240;52.962;5.790;2023-05-10T15:44:41;3.60;;;2.70;;
62256;SDS011;48240;52.962;5.790;2023-05-10T15:47:09;2.47;;;2.17;;
62256;SDS011;48240;52.962;5.790;2023-05-10T15:49:35;4.07;;;2.83;;
62256;SDS011;48240;52.962;5.790;2023-05-10T15:52:01;4.95;;;2.92;;
62256;SDS011;48240;52.962;5.790;2023-05-10T15:54:28;4.43;;;2.33;;
62256;SDS011;48240;52.962;5.790;2023-05-10T15:56:54;3.22;;;2.83;;
62256;SDS011;48240;52.962;5.790;2023-05-10T15:59:20;3.25;;;2.70;;
62256;SDS011;48240;52.962;5.790;2023-05-10T16:01:46;7.18;;;2.80;;
62256;SDS011;48240;52.962;5.790;2023-05-10T16:04:12;7.45;;;2.60;;
62256;SDS011;48240;52.962;5.790;2023-05-10T16:06:38;4.90;;;2.50;;
62256;SDS011;48240;52.962;5.790;2023-05-10T16:09:05;7.82;;;2.90;;
62256;SDS011;48240;52.962;5.790;2023-05-10T16:11:31;5.82;;;2.58;;
62256;SDS011;48240;52.962;5.790;2023-05-10T16:13:57;3.28;;;1.75;;
62256;SDS011;48240;52.962;5.790;2023-05-10T16:16:23;4.57;;;2.58;;
62256;SDS011;48240;52.962;5.790;2023-05-10T16:18:50;6.32;;;2.97;;
62256;SDS011;48240;52.962;5.790;2023-05-10T16:21:16;6.47;;;2.33;;
62256;SDS011;48240;52.962;5.790;2023-05-10T16:23:42;2.92;;;2.58;;
62256;SDS011;48240;52.962;5.790;2023-05-10T16:26:11;3.25;;;2.38;;
62256;SDS011;48240;52.962;5.790;2023-05-10T16:28:37;6.85;;;2.70;;
62256;SDS011;48240;52.962;5.790;2023-05-10T16:31:04;5.47;;;2.45;;
62256;SDS011;48240;52.962;5.790;2023-05-10T16:33:30;4.93;;;2.45;;
62256;SDS011;48240;52.962;5.790;2023-05-10T16:35:57;3.80;;;2.55;;
62256;SDS011;48240;52.962;5.790;2023-05-10T16:38:23;5.35;;;2.50;;
62256;SDS011;48240;52.962;5.790;2023-05-10T16:41:00;4.35;;;2.58;;
62256;SDS011;48240;52.962;5.790;2023-05-10T16:43:27;3.42;;;2.35;;
62256;SDS011;48240;52.962;5.790;2023-05-10T16:45:53;3.30;;;2.30;;
62256;SDS011;48240;52.962;5.790;2023-05-10T16:48:19;6.18;;;2.50;;
62256;SDS011;48240;52.962;5.790;2023-05-10T16:50:45;5.55;;;2.75;;
62256;SDS011;48240;52.962;5.790;2023-05-10T16:53:12;5.40;;;2.40;;
62256;SDS011;48240;52.962;5.790;2023-05-10T16:55:38;6.25;;;2.40;;
62256;SDS011;48240;52.962;5.790;2023-05-10T16:58:04;2.83;;;2.20;;
62256;SDS011;48240;52.962;5.790;2023-05-10T17:00:30;8.90;;;2.20;;
62256;SDS011;48240;52.962;5.790;2023-05-10T17:02:56;5.60;;;2.60;;
62256;SDS011;48240;52.962;5.790;2023-05-10T17:05:22;4.00;;;2.15;;
62256;SDS011;48240;52.962;5.790;2023-05-10T17:07:48;3.25;;;2.38;;
62256;SDS011;48240;52.962;5.790;2023-05-10T17:10:15;4.82;;;2.80;;
62256;SDS011;48240;52.962;5.790;2023-05-10T17:12:41;3.60;;;2.78;;
62256;SDS011;48240;52.962;5.790;2023-05-10T17:15:08;5.10;;;2.22;;
62256;SDS011;48240;52.962;5.790;2023-05-10T17:17:34;3.05;;;2.53;;
62256;SDS011;48240;52.962;5.790;2023-05-10T17:20:00;4.25;;;2.50;;
62256;SDS011;48240;52.962;5.790;2023-05-10T17:22:26;5.20;;;2.35;;
62256;SDS011;48240;52.962;5.790;2023-05-10T17:24:52;3.22;;;2.35;;
62256;SDS011;48240;52.962;5.790;2023-05-10T17:27:19;8.68;;;2.60;;
62256;SDS011;48240;52.962;5.790;2023-05-10T17:29:45;5.18;;;2.45;;
62256;SDS011;48240;52.962;5.790;2023-05-10T17:32:11;4.38;;;2.28;;
62256;SDS011;48240;52.962;5.790;2023-05-10T17:34:37;3.47;;;2.08;;
62256;SDS011;48240;52.962;5.790;2023-05-10T17:37:03;3.65;;;2.38;;
62256;SDS011;48240;52.962;5.790;2023-05-10T17:39:29;2.80;;;2.33;;
62256;SDS011;48240;52.962;5.790;2023-05-10T17:41:55;4.65;;;2.33;;
62256;SDS011;48240;52.962;5.790;2023-05-10T17:44:22;4.88;;;2.20;;
62256;SDS011;48240;52.962;5.790;2023-05-10T17:46:49;3.58;;;2.35;;
62256;SDS011;48240;52.962;5.790;2023-05-10T17:49:16;3.67;;;2.28;;
62256;SDS011;48240;52.962;5.790;2023-05-10T17:51:42;4.03;;;2.38;;
62256;SDS011;48240;52.962;5.790;2023-05-10T17:54:10;5.85;;;2.80;;
62256;SDS011;48240;52.962;5.790;2023-05-10T17:56:36;4.13;;;2.55;;
62256;SDS011;48240;52.962;5.790;2023-05-10T17:59:03;3.78;;;2.38;;
62256;SDS011;48240;52.962;5.790;2023-05-10T18:01:29;2.75;;;2.17;;
62256;SDS011;48240;52.962;5.790;2023-05-10T18:03:55;3.95;;;2.38;;
62256;SDS011;48240;52.962;5.790;2023-05-10T18:06:21;4.63;;;2.03;;
62256;SDS011;48240;52.962;5.790;2023-05-10T18:08:48;4.38;;;2.50;;
62256;SDS011;48240;52.962;5.790;2023-05-10T18:11:14;3.08;;;2.38;;
62256;SDS011;48240;52.962;5.790;2023-05-10T18:13:40;3.80;;;2.63;;
62256;SDS011;48240;52.962;5.790;2023-05-10T18:16:06;3.47;;;2.45;;
62256;SDS011;48240;52.962;5.790;2023-05-10T18:18:36;3.47;;;2.47;;
62256;SDS011;48240;52.962;5.790;2023-05-10T18:21:03;4.90;;;2.85;;
62256;SDS011;48240;52.962;5.790;2023-05-10T18:23:29;4.75;;;2.53;;
62256;SDS011;48240;52.962;5.790;2023-05-10T18:25:55;4.70;;;2.40;;
62256;SDS011;48240;52.962;5.790;2023-05-10T18:28:22;4.43;;;2.45;;
62256;SDS011;48240;52.962;5.790;2023-05-10T18:30:51;3.30;;;2.50;;
62256;SDS011;48240;52.962;5.790;2023-05-10T18:33:17;4.10;;;2.90;;
62256;SDS011;48240;52.962;5.790;2023-05-10T18:35:43;5.30;;;2.40;;
62256;SDS011;48240;52.962;5.790;2023-05-10T18:38:09;3.30;;;2.42;;
62256;SDS011;48240;52.962;5.790;2023-05-10T18:40:36;2.65;;;2.42;;
62256;SDS011;48240;52.962;5.790;2023-05-10T18:43:03;3.33;;;2.10;;
62256;SDS011;48240;52.962;5.790;2023-05-10T18:45:29;3.72;;;2.80;;
62256;SDS011;48240;52.962;5.790;2023-05-10T18:47:55;6.82;;;2.30;;
62256;SDS011;48240;52.962;5.790;2023-05-10T18:50:21;4.95;;;3.08;;
62256;SDS011;48240;52.962;5.790;2023-05-10T18:52:47;2.50;;;2.30;;
62256;SDS011;48240;52.962;5.790;2023-05-10T18:55:14;5.22;;;2.10;;